sensor_id;sensor_type;location;lat;lon;timestamp;P1;durP1;ratioP1;P2;durP2;ratioP2
15931;SDS011;8065;49.520;11.284;2023-08-17T00:01:59;6.13;;;5.40;;
15931;SDS011;8065;49.520;11.284;2023-08-17T00:04:27;6.63;;;5.90;;
15931;SDS011;8065;49.520;11.284;2023-08-17T00:06:56;6.80;;;5.77;;
15931;SDS011;8065;49.520;11.284;2023-08-17T00:09:26;6.93;;;5.53;;
15931;SDS011;8065;49.520;11.284;2023-08-17T00:11:55;6.00;;;5.40;;
15931;SDS011;8065;49.520;11.284;2023-08-17T00:14:23;7.10;;;5.70;;
15931;SDS011;8065;49.520;11.284;2023-08-17T00:16:51;6.67;;;5.40;;
15931;SDS011;8065;49.520;11.284;2023-08-17T00:19:20;6.90;;;5.53;;
15931;SDS011;8065;49.520;11.284;2023-08-17T00:21:48;5.97;;;5.40;;
15931;SDS011;8065;49.520;11.284;2023-08-17T00:24:16;7.10;;;5.90;;
15931;SDS011;8065;49.520;11.284;2023-08-17T00:26:47;7.67;;;5.90;;
15931;SDS011;8065;49.520;11.284;2023-08-17T00:29:16;5.90;;;5.40;;
15931;SDS011;8065;49.520;11.284;2023-08-17T00:31:44;6.53;;;5.70;;
15931;SDS011;8065;49.520;11.284;2023-08-17T00:34:12;7.73;;;5.70;;
15931;SDS011;8065;49.520;11.284;2023-08-17T00:36:40;6.67;;;6.07;;
15931;SDS011;8065;49.520;11.284;2023-08-17T00:39:09;10.03;;;6.30;;
15931;SDS011;8065;49.520;11.284;2023-08-17T00:41:37;6.13;;;5.63;;
15931;SDS011;8065;49.520;11.284;2023-08-17T00:44:08;6.10;;;5.50;;
15931;SDS011;8065;49.520;11.284;2023-08-17T00:46:36;6.20;;;5.60;;
15931;SDS011;8065;49.520;11.284;2023-08-17T00:49:06;5.90;;;5.40;;
15931;SDS011;8065;49.520;11.284;2023-08-17T00:51:34;7.63;;;6.17;;
15931;SDS011;8065;49.520;11.284;2023-08-17T00:54:03;6.37;;;5.70;;
15931;SDS011;8065;49.520;11.284;2023-08-17T00:56:32;6.80;;;6.10;;
15931;SDS011;8065;49.520;11.284;2023-08-17T00:59:00;7.20;;;6.17;;
15931;SDS011;8065;49.520;11.284;2023-08-17T01:01:31;6.67;;;6.03;;
15931;SDS011;8065;49.520;11.284;2023-08-17T01:03:59;7.10;;;6.40;;
15931;SDS011;8065;49.520;11.284;2023-08-17T01:06:27;7.77;;;6.43;;
15931;SDS011;8065;49.520;11.284;2023-08-17T01:08:56;7.17;;;6.40;;
15931;SDS011;8065;49.520;11.284;2023-08-17T01:11:25;7.27;;;6.67;;
15931;SDS011;8065;49.520;11.284;2023-08-17T01:13:59;7.13;;;6.53;;
15931;SDS011;8065;49.520;11.284;2023-08-17T01:16:37;6.93;;;6.13;;
15931;SDS011;8065;49.520;11.284;2023-08-17T01:19:10;6.47;;;5.93;;
15931;SDS011;8065;49.520;11.284;2023-08-17T01:21:48;6.70;;;6.10;;
15931;SDS011;8065;49.520;11.284;2023-08-17T01:24:20;7.83;;;5.90;;
15931;SDS011;8065;49.520;11.284;2023-08-17T01:26:49;8.83;;;6.30;;
15931;SDS011;8065;49.520;11.284;2023-08-17T01:29:17;7.37;;;6.07;;
15931;SDS011;8065;49.520;11.284;2023-08-17T01:31:47;6.97;;;6.33;;
15931;SDS011;8065;49.520;11.284;2023-08-17T01:34:22;9.50;;;6.43;;
15931;SDS011;8065;49.520;11.284;2023-08-17T01:36:53;7.00;;;6.30;;
15931;SDS011;8065;49.520;11.284;2023-08-17T01:39:31;6.80;;;6.10;;
15931;SDS011;8065;49.520;11.284;2023-08-17T01:42:04;7.03;;;6.10;;
15931;SDS011;8065;49.520;11.284;2023-08-17T01:44:34;7.93;;;6.30;;
15931;SDS011;8065;49.520;11.284;2023-08-17T01:47:03;8.57;;;6.50;;
15931;SDS011;8065;49.520;11.284;2023-08-17T01:49:35;6.73;;;6.20;;
15931;SDS011;8065;49.520;11.284;2023-08-17T01:52:07;7.80;;;6.30;;
15931;SDS011;8065;49.520;11.284;2023-08-17T01:54:41;6.93;;;6.27;;
15931;SDS011;8065;49.520;11.284;2023-08-17T01:57:14;6.17;;;5.67;;
15931;SDS011;8065;49.520;11.284;2023-08-17T01:59:46;8.27;;;6.70;;
15931;SDS011;8065;49.520;11.284;2023-08-17T02:02:18;6.97;;;6.23;;
15931;SDS011;8065;49.520;11.284;2023-08-17T14:31:04;6.83;;;6.23;;
15931;SDS011;8065;49.520;11.284;2023-08-17T14:33:32;9.33;;;6.07;;
15931;SDS011;8065;49.520;11.284;2023-08-17T14:36:00;6.40;;;5.80;;
15931;SDS011;8065;49.520;11.284;2023-08-17T14:38:29;6.57;;;6.07;;
15931;SDS011;8065;49.520;11.284;2023-08-17T14:40:57;8.60;;;6.73;;
15931;SDS011;8065;49.520;11.284;2023-08-17T14:43:25;7.27;;;6.60;;
15931;SDS011;8065;49.520;11.284;2023-08-17T14:45:53;7.33;;;6.83;;
15931;SDS011;8065;49.520;11.284;2023-08-17T14:48:25;8.53;;;7.00;;
15931;SDS011;8065;49.520;11.284;2023-08-17T14:50:53;6.90;;;6.20;;
15931;SDS011;8065;49.520;11.284;2023-08-17T14:53:22;6.67;;;6.17;;
15931;SDS011;8065;49.520;11.284;2023-08-17T14:55:47;6.37;;;5.87;;
15931;SDS011;8065;49.520;11.284;2023-08-17T14:58:16;8.40;;;7.17;;
15931;SDS011;8065;49.520;11.284;2023-08-17T15:00:44;8.63;;;7.40;;
15931;SDS011;8065;49.520;11.284;2023-08-17T15:03:12;7.90;;;7.27;;
15931;SDS011;8065;49.520;11.284;2023-08-17T15:05:43;9.00;;;6.93;;
15931;SDS011;8065;49.520;11.284;2023-08-17T15:08:11;8.10;;;7.30;;
15931;SDS011;8065;49.520;11.284;2023-08-17T15:10:41;8.27;;;7.50;;
15931;SDS011;8065;49.520;11.284;2023-08-17T15:13:09;8.43;;;7.63;;
15931;SDS011;8065;49.520;11.284;2023-08-17T15:15:38;7.80;;;7.20;;
15931;SDS011;8065;49.520;11.284;2023-08-17T15:18:08;7.77;;;7.13;;
15931;SDS011;8065;49.520;11.284;2023-08-17T15:20:36;7.57;;;6.90;;
15931;SDS011;8065;49.520;11.284;2023-08-17T15:23:07;7.47;;;6.87;;
15931;SDS011;8065;49.520;11.284;2023-08-17T15:25:35;7.90;;;7.20;;
15931;SDS011;8065;49.520;11.284;2023-08-17T15:28:03;8.07;;;7.37;;
15931;SDS011;8065;49.520;11.284;2023-08-17T15:30:32;8.43;;;7.67;;
15931;SDS011;8065;49.520;11.284;2023-08-17T15:33:00;8.50;;;7.70;;
15931;SDS011;8065;49.520;11.284;2023-08-17T15:35:28;7.60;;;7.00;;
15931;SDS011;8065;49.520;11.284;2023-08-17T15:37:57;8.23;;;7.43;;
15931;SDS011;8065;49.520;11.284;2023-08-17T15:40:27;8.07;;;7.37;;
15931;SDS011;8065;49.520;11.284;2023-08-17T15:42:56;8.70;;;7.90;;
15931;SDS011;8065;49.520;11.284;2023-08-17T15:45:24;8.07;;;7.27;;
15931;SDS011;8065;49.520;11.284;2023-08-17T15:47:52;8.70;;;7.90;;
15931;SDS011;8065;49.520;11.284;2023-08-17T15:50:21;8.20;;;7.50;;
15931;SDS011;8065;49.520;11.284;2023-08-17T15:52:49;8.73;;;7.83;;
15931;SDS011;8065;49.520;11.284;2023-08-17T15:55:17;8.07;;;7.47;;
15931;SDS011;8065;49.520;11.284;2023-08-17T15:57:48;8.63;;;7.83;;
15931;SDS011;8065;49.520;11.284;2023-08-17T16:00:17;9.23;;;7.90;;
15931;SDS011;8065;49.520;11.284;2023-08-17T16:02:45;9.10;;;8.20;;
15931;SDS011;8065;49.520;11.284;2023-08-17T16:05:13;8.83;;;7.77;;
15931;SDS011;8065;49.520;11.284;2023-08-17T16:07:42;8.23;;;7.60;;
15931;SDS011;8065;49.520;11.284;2023-08-17T16:10:10;11.10;;;7.87;;
15931;SDS011;8065;49.520;11.284;2023-08-17T16:12:38;10.10;;;7.10;;
15931;SDS011;8065;49.520;11.284;2023-08-17T16:15:09;7.17;;;6.50;;
15931;SDS011;8065;49.520;11.284;2023-08-17T16:17:38;6.30;;;5.80;;
15931;SDS011;8065;49.520;11.284;2023-08-17T16:20:07;7.90;;;5.00;;
15931;SDS011;8065;49.520;11.284;2023-08-17T16:22:36;7.97;;;5.13;;
15931;SDS011;8065;49.520;11.284;2023-08-17T16:25:05;6.50;;;5.80;;
15931;SDS011;8065;49.520;11.284;2023-08-17T16:27:34;5.90;;;5.40;;
15931;SDS011;8065;49.520;11.284;2023-08-17T16:30:02;7.43;;;6.00;;
15931;SDS011;8065;49.520;11.284;2023-08-17T16:32:34;6.40;;;5.73;;
15931;SDS011;8065;49.520;11.284;2023-08-17T16:35:02;7.97;;;5.70;;
15931;SDS011;8065;49.520;11.284;2023-08-17T16:37:31;6.70;;;5.87;;
15931;SDS011;8065;49.520;11.284;2023-08-17T16:39:59;7.53;;;6.13;;
15931;SDS011;8065;49.520;11.284;2023-08-17T16:42:29;5.87;;;5.37;;
15931;SDS011;8065;49.520;11.284;2023-08-17T16:44:57;6.07;;;5.47;;
15931;SDS011;8065;49.520;11.284;2023-08-17T16:47:26;5.73;;;5.13;;
15931;SDS011;8065;49.520;11.284;2023-08-17T16:49:57;5.90;;;5.40;;
15931;SDS011;8065;49.520;11.284;2023-08-17T16:52:26;4.80;;;4.40;;
15931;SDS011;8065;49.520;11.284;2023-08-17T16:54:54;4.87;;;4.00;;
15931;SDS011;8065;49.520;11.284;2023-08-17T16:57:22;9.13;;;4.33;;
15931;SDS011;8065;49.520;11.284;2023-08-17T16:59:51;8.10;;;4.60;;
15931;SDS011;8065;49.520;11.284;2023-08-17T17:02:19;9.17;;;4.70;;
15931;SDS011;8065;49.520;11.284;2023-08-17T17:04:48;7.37;;;3.90;;
15931;SDS011;8065;49.520;11.284;2023-08-17T17:07:19;7.03;;;4.87;;
15931;SDS011;8065;49.520;11.284;2023-08-17T17:09:47;5.10;;;4.60;;
15931;SDS011;8065;49.520;11.284;2023-08-17T17:12:16;5.10;;;4.27;;
15931;SDS011;8065;49.520;11.284;2023-08-17T17:14:44;7.90;;;4.77;;
15931;SDS011;8065;49.520;11.284;2023-08-17T17:17:12;6.10;;;3.70;;
15931;SDS011;8065;49.520;11.284;2023-08-17T17:19:40;7.17;;;3.50;;
15931;SDS011;8065;49.520;11.284;2023-08-17T17:22:09;3.47;;;3.13;;
15931;SDS011;8065;49.520;11.284;2023-08-17T17:24:40;3.83;;;3.40;;
15931;SDS011;8065;49.520;11.284;2023-08-17T17:27:08;5.93;;;3.13;;
15931;SDS011;8065;49.520;11.284;2023-08-17T17:29:36;5.83;;;2.97;;
15931;SDS011;8065;49.520;11.284;2023-08-17T17:32:05;3.40;;;2.80;;
15931;SDS011;8065;49.520;11.284;2023-08-17T17:34:33;3.23;;;2.77;;
15931;SDS011;8065;49.520;11.284;2023-08-17T17:37:01;3.80;;;2.80;;
15931;SDS011;8065;49.520;11.284;2023-08-17T17:39:30;2.93;;;2.17;;
15931;SDS011;8065;49.520;11.284;2023-08-17T17:42:01;2.40;;;2.20;;
15931;SDS011;8065;49.520;11.284;2023-08-17T17:44:30;5.13;;;2.40;;
15931;SDS011;8065;49.520;11.284;2023-08-17T17:46:58;2.90;;;2.60;;
15931;SDS011;8065;49.520;11.284;2023-08-17T17:49:26;5.07;;;3.27;;
15931;SDS011;8065;49.520;11.284;2023-08-17T17:51:55;4.83;;;3.30;;
15931;SDS011;8065;49.520;11.284;2023-08-17T17:54:23;3.27;;;2.97;;
15931;SDS011;8065;49.520;11.284;2023-08-17T17:56:52;3.10;;;2.80;;
15931;SDS011;8065;49.520;11.284;2023-08-17T17:59:23;4.17;;;2.70;;
15931;SDS011;8065;49.520;11.284;2023-08-17T18:01:51;4.43;;;2.90;;
15931;SDS011;8065;49.520;11.284;2023-08-17T18:04:19;6.07;;;2.67;;
15931;SDS011;8065;49.520;11.284;2023-08-17T18:06:47;4.03;;;2.63;;
15931;SDS011;8065;49.520;11.284;2023-08-17T18:09:16;3.70;;;2.63;;
15931;SDS011;8065;49.520;11.284;2023-08-17T18:11:44;5.13;;;2.50;;
15931;SDS011;8065;49.520;11.284;2023-08-17T18:14:12;3.57;;;2.43;;
15931;SDS011;8065;49.520;11.284;2023-08-17T18:16:45;5.33;;;3.07;;
15931;SDS011;8065;49.520;11.284;2023-08-17T18:19:14;4.90;;;3.20;;
15931;SDS011;8065;49.520;11.284;2023-08-17T18:21:42;2.97;;;2.77;;
15931;SDS011;8065;49.520;11.284;2023-08-17T18:24:10;3.70;;;3.23;;
15931;SDS011;8065;49.520;11.284;2023-08-17T18:26:39;3.93;;;3.50;;
15931;SDS011;8065;49.520;11.284;2023-08-17T18:29:07;5.17;;;3.87;;
15931;SDS011;8065;49.520;11.284;2023-08-17T18:31:36;5.10;;;3.50;;
15931;SDS011;8065;49.520;11.284;2023-08-17T18:34:08;3.90;;;3.50;;
15931;SDS011;8065;49.520;11.284;2023-08-17T18:36:37;4.23;;;3.83;;
15931;SDS011;8065;49.520;11.284;2023-08-17T18:39:05;3.93;;;3.63;;
15931;SDS011;8065;49.520;11.284;2023-08-17T18:41:33;3.83;;;3.50;;
15931;SDS011;8065;49.520;11.284;2023-08-17T18:44:02;3.90;;;3.60;;
15931;SDS011;8065;49.520;11.284;2023-08-17T18:46:30;4.10;;;3.80;;
15931;SDS011;8065;49.520;11.284;2023-08-17T18:48:58;3.57;;;3.27;;
15931;SDS011;8065;49.520;11.284;2023-08-17T18:51:29;3.67;;;3.37;;
15931;SDS011;8065;49.520;11.284;2023-08-17T18:53:58;4.07;;;3.43;;
15931;SDS011;8065;49.520;11.284;2023-08-17T18:56:26;4.30;;;3.50;;
15931;SDS011;8065;49.520;11.284;2023-08-17T18:58:54;4.70;;;3.60;;
15931;SDS011;8065;49.520;11.284;2023-08-17T19:01:23;5.17;;;3.50;;
15931;SDS011;8065;49.520;11.284;2023-08-17T19:03:51;3.67;;;3.37;;
15931;SDS011;8065;49.520;11.284;2023-08-17T19:06:19;5.40;;;3.57;;
15931;SDS011;8065;49.520;11.284;2023-08-17T19:08:50;4.20;;;3.80;;
15931;SDS011;8065;49.520;11.284;2023-08-17T19:11:18;3.83;;;3.53;;
15931;SDS011;8065;49.520;11.284;2023-08-17T19:13:47;4.10;;;3.80;;
15931;SDS011;8065;49.520;11.284;2023-08-17T19:16:15;3.87;;;3.23;;
15931;SDS011;8065;49.520;11.284;2023-08-17T19:18:43;6.57;;;3.00;;
15931;SDS011;8065;49.520;11.284;2023-08-17T19:21:11;4.80;;;2.90;;
15931;SDS011;8065;49.520;11.284;2023-08-17T19:23:40;4.67;;;3.30;;
15931;SDS011;8065;49.520;11.284;2023-08-17T19:26:10;3.07;;;2.87;;
15931;SDS011;8065;49.520;11.284;2023-08-17T19:28:39;4.10;;;3.10;;
15931;SDS011;8065;49.520;11.284;2023-08-17T19:31:07;3.10;;;2.90;;
15931;SDS011;8065;49.520;11.284;2023-08-17T19:33:35;3.27;;;2.93;;
15931;SDS011;8065;49.520;11.284;2023-08-17T19:36:04;3.73;;;3.00;;
15931;SDS011;8065;49.520;11.284;2023-08-17T19:38:33;3.27;;;3.00;;
15931;SDS011;8065;49.520;11.284;2023-08-17T19:41:01;4.60;;;2.90;;
15931;SDS011;8065;49.520;11.284;2023-08-17T19:43:32;4.67;;;2.70;;
15931;SDS011;8065;49.520;11.284;2023-08-17T19:46:00;3.07;;;2.73;;
15931;SDS011;8065;49.520;11.284;2023-08-17T19:48:29;2.77;;;2.33;;
15931;SDS011;8065;49.520;11.284;2023-08-17T19:50:57;3.17;;;2.70;;
15931;SDS011;8065;49.520;11.284;2023-08-17T19:53:28;2.70;;;2.50;;
15931;SDS011;8065;49.520;11.284;2023-08-17T19:55:57;3.23;;;2.93;;
15931;SDS011;8065;49.520;11.284;2023-08-17T19:58:26;2.90;;;2.63;;
15931;SDS011;8065;49.520;11.284;2023-08-17T20:01:02;3.90;;;2.60;;
15931;SDS011;8065;49.520;11.284;2023-08-17T20:03:32;3.93;;;2.90;;
15931;SDS011;8065;49.520;11.284;2023-08-17T20:06:01;3.07;;;2.77;;
15931;SDS011;8065;49.520;11.284;2023-08-17T20:08:30;3.23;;;2.53;;
15931;SDS011;8065;49.520;11.284;2023-08-17T20:11:06;3.33;;;2.70;;
15931;SDS011;8065;49.520;11.284;2023-08-17T20:13:35;3.03;;;2.53;;
15931;SDS011;8065;49.520;11.284;2023-08-17T20:16:06;2.53;;;2.33;;
15931;SDS011;8065;49.520;11.284;2023-08-17T20:18:34;2.77;;;2.57;;
15931;SDS011;8065;49.520;11.284;2023-08-17T20:21:03;2.47;;;2.27;;
15931;SDS011;8065;49.520;11.284;2023-08-17T20:23:32;2.93;;;2.67;;
15931;SDS011;8065;49.520;11.284;2023-08-17T20:26:01;3.60;;;2.40;;
15931;SDS011;8065;49.520;11.284;2023-08-17T20:28:30;2.87;;;2.60;;
15931;SDS011;8065;49.520;11.284;2023-08-17T20:30:58;2.90;;;2.53;;
15931;SDS011;8065;49.520;11.284;2023-08-17T20:33:29;2.67;;;2.47;;
15931;SDS011;8065;49.520;11.284;2023-08-17T20:35:58;3.03;;;2.30;;
15931;SDS011;8065;49.520;11.284;2023-08-17T20:38:26;2.53;;;2.33;;
15931;SDS011;8065;49.520;11.284;2023-08-17T20:40:55;3.90;;;2.20;;
15931;SDS011;8065;49.520;11.284;2023-08-17T20:43:23;3.67;;;2.20;;
15931;SDS011;8065;49.520;11.284;2023-08-17T20:45:52;2.40;;;2.20;;
15931;SDS011;8065;49.520;11.284;2023-08-17T20:48:21;2.50;;;2.30;;
15931;SDS011;8065;49.520;11.284;2023-08-17T20:50:53;2.40;;;2.20;;
15931;SDS011;8065;49.520;11.284;2023-08-17T20:53:22;3.00;;;2.13;;
15931;SDS011;8065;49.520;11.284;2023-08-17T20:55:50;2.93;;;2.10;;
15931;SDS011;8065;49.520;11.284;2023-08-17T20:58:19;2.47;;;2.27;;
15931;SDS011;8065;49.520;11.284;2023-08-17T21:00:47;2.30;;;2.10;;
15931;SDS011;8065;49.520;11.284;2023-08-17T21:03:15;2.47;;;2.07;;
15931;SDS011;8065;49.520;11.284;2023-08-17T21:05:43;2.00;;;1.90;;
15931;SDS011;8065;49.520;11.284;2023-08-17T21:08:14;6.60;;;2.30;;
15931;SDS011;8065;49.520;11.284;2023-08-17T21:10:42;2.47;;;2.27;;
15931;SDS011;8065;49.520;11.284;2023-08-17T21:13:11;2.70;;;2.37;;
15931;SDS011;8065;49.520;11.284;2023-08-17T21:15:39;2.57;;;2.40;;
15931;SDS011;8065;49.520;11.284;2023-08-17T21:18:07;2.53;;;2.23;;
15931;SDS011;8065;49.520;11.284;2023-08-17T21:20:35;2.70;;;2.50;;
15931;SDS011;8065;49.520;11.284;2023-08-17T21:23:04;5.33;;;2.30;;
15931;SDS011;8065;49.520;11.284;2023-08-17T21:25:34;3.03;;;1.90;;
15931;SDS011;8065;49.520;11.284;2023-08-17T21:28:03;1.93;;;1.73;;
15931;SDS011;8065;49.520;11.284;2023-08-17T21:30:32;1.87;;;1.77;;
15931;SDS011;8065;49.520;11.284;2023-08-17T21:33:00;2.30;;;2.20;;
15931;SDS011;8065;49.520;11.284;2023-08-17T21:35:28;1.83;;;1.73;;
15931;SDS011;8065;49.520;11.284;2023-08-17T21:37:56;3.07;;;2.20;;
15931;SDS011;8065;49.520;11.284;2023-08-17T21:40:25;2.00;;;1.90;;
15931;SDS011;8065;49.520;11.284;2023-08-17T21:42:56;2.00;;;1.90;;
15931;SDS011;8065;49.520;11.284;2023-08-17T21:45:24;2.30;;;2.10;;
15931;SDS011;8065;49.520;11.284;2023-08-17T21:47:52;3.33;;;1.90;;
15931;SDS011;8065;49.520;11.284;2023-08-17T21:50:21;2.50;;;2.10;;
15931;SDS011;8065;49.520;11.284;2023-08-17T21:52:49;2.60;;;2.40;;
15931;SDS011;8065;49.520;11.284;2023-08-17T21:55:17;4.63;;;2.27;;
15931;SDS011;8065;49.520;11.284;2023-08-17T21:57:46;2.40;;;2.20;;
15931;SDS011;8065;49.520;11.284;2023-08-17T22:00:17;2.43;;;2.00;;
15931;SDS011;8065;49.520;11.284;2023-08-17T22:02:45;2.23;;;2.03;;
15931;SDS011;8065;49.520;11.284;2023-08-17T22:05:13;2.47;;;1.83;;
15931;SDS011;8065;49.520;11.284;2023-08-17T22:07:42;2.63;;;2.20;;
15931;SDS011;8065;49.520;11.284;2023-08-17T22:10:10;3.17;;;2.10;;
15931;SDS011;8065;49.520;11.284;2023-08-17T22:12:38;2.50;;;2.30;;
15931;SDS011;8065;49.520;11.284;2023-08-17T22:15:07;3.47;;;2.10;;
15931;SDS011;8065;49.520;11.284;2023-08-17T22:17:38;3.50;;;2.17;;
15931;SDS011;8065;49.520;11.284;2023-08-17T22:20:07;2.37;;;2.13;;
15931;SDS011;8065;49.520;11.284;2023-08-17T22:22:36;2.27;;;2.10;;
15931;SDS011;8065;49.520;11.284;2023-08-17T22:25:05;2.50;;;2.30;;
15931;SDS011;8065;49.520;11.284;2023-08-17T22:27:35;4.70;;;2.20;;
15931;SDS011;8065;49.520;11.284;2023-08-17T22:30:03;2.80;;;2.20;;
15931;SDS011;8065;49.520;11.284;2023-08-17T22:32:32;2.33;;;2.13;;
15931;SDS011;8065;49.520;11.284;2023-08-17T22:35:03;3.80;;;2.30;;
15931;SDS011;8065;49.520;11.284;2023-08-17T22:37:35;4.17;;;2.70;;
15931;SDS011;8065;49.520;11.284;2023-08-17T22:40:03;2.97;;;2.33;;
15931;SDS011;8065;49.520;11.284;2023-08-17T22:42:33;2.13;;;1.97;;
15931;SDS011;8065;49.520;11.284;2023-08-17T22:45:03;4.00;;;2.23;;
15931;SDS011;8065;49.520;11.284;2023-08-17T22:47:32;2.33;;;2.13;;
15931;SDS011;8065;49.520;11.284;2023-08-17T22:50:04;2.40;;;2.20;;
15931;SDS011;8065;49.520;11.284;2023-08-17T22:52:33;2.40;;;2.20;;
15931;SDS011;8065;49.520;11.284;2023-08-17T22:55:01;3.73;;;2.10;;
15931;SDS011;8065;49.520;11.284;2023-08-17T22:57:30;2.40;;;2.20;;
15931;SDS011;8065;49.520;11.284;2023-08-17T22:59:58;2.43;;;2.23;;
15931;SDS011;8065;49.520;11.284;2023-08-17T23:02:27;2.20;;;2.10;;
15931;SDS011;8065;49.520;11.284;2023-08-17T23:04:55;2.47;;;2.27;;
15931;SDS011;8065;49.520;11.284;2023-08-17T23:07:26;2.87;;;2.57;;
15931;SDS011;8065;49.520;11.284;2023-08-17T23:09:54;4.13;;;2.30;;
15931;SDS011;8065;49.520;11.284;2023-08-17T23:12:23;2.20;;;2.10;;
15931;SDS011;8065;49.520;11.284;2023-08-17T23:14:51;2.40;;;2.20;;
15931;SDS011;8065;49.520;11.284;2023-08-17T23:17:19;4.97;;;2.50;;
15931;SDS011;8065;49.520;11.284;2023-08-17T23:19:48;3.37;;;2.50;;
15931;SDS011;8065;49.520;11.284;2023-08-17T23:22:16;5.43;;;2.73;;
15931;SDS011;8065;49.520;11.284;2023-08-17T23:24:47;4.50;;;2.47;;
15931;SDS011;8065;49.520;11.284;2023-08-17T23:27:15;3.47;;;2.57;;
15931;SDS011;8065;49.520;11.284;2023-08-17T23:29:44;3.43;;;2.47;;
15931;SDS011;8065;49.520;11.284;2023-08-17T23:32:12;5.77;;;2.57;;
15931;SDS011;8065;49.520;11.284;2023-08-17T23:34:40;2.60;;;2.40;;
15931;SDS011;8065;49.520;11.284;2023-08-17T23:37:08;2.97;;;2.63;;
15931;SDS011;8065;49.520;11.284;2023-08-17T23:39:37;2.77;;;2.57;;
15931;SDS011;8065;49.520;11.284;2023-08-17T23:42:08;3.00;;;2.40;;
15931;SDS011;8065;49.520;11.284;2023-08-17T23:44:36;2.60;;;2.40;;
15931;SDS011;8065;49.520;11.284;2023-08-17T23:47:05;2.87;;;2.67;;
15931;SDS011;8065;49.520;11.284;2023-08-17T23:49:33;4.50;;;2.80;;
15931;SDS011;8065;49.520;11.284;2023-08-17T23:52:01;3.80;;;2.60;;
15931;SDS011;8065;49.520;11.284;2023-08-17T23:54:30;3.00;;;2.80;;
15931;SDS011;8065;49.520;11.284;2023-08-17T23:56:58;3.13;;;2.80;;
15931;SDS011;8065;49.520;11.284;2023-08-17T23:59:29;2.97;;;2.63;;
